Flight Track Log - Related Links

Times and Time Zones

All times are in EST time to prevent confusion due to time zone crossing. See the N400PU flight status page for this flight to view local times or setup timezone preferences in your user account.

Time Position Orientation Groundspeed Altitude Reporting Facility
EST Latitude Longitude Course Direction KTS MPH feet Rate Location/Type
Thu 10:53:18 AM 42.2742 -82.9678 199° South 150 173 1,400  Level Cleveland Center
Thu 10:54:19 AM 42.2222 -82.9917 199° South 225 259 3,900 2,211 Climbing Cleveland Center
Thu 10:55:12 AM 42.1722 -83.0028 189° South 229 264 5,600 2,066 Climbing Cleveland Center
Thu 10:55:20 AM 42.1578 -83.0111 203° Southwest 258 297 6,000 2,032 Climbing Cleveland Center
Thu 10:56:14 AM 42.1250 -83.0700 233° Southwest 251 289 7,700 1,862 Climbing Cleveland Center
Thu 10:57:16 AM 42.0889 -83.1356 233° Southwest 221 254 9,600 1,113 Climbing Cleveland Center
Thu 10:58:18 AM 42.0400 -83.2286 235° Southwest 259 298 10,000 194 Climbing Cleveland Center
Thu 10:59:20 AM 41.9931 -83.3175 235° Southwest 282 325 10,000  Level Cleveland Center
Thu 11:00:22 AM 41.9464 -83.4061 235° Southwest 288 331 10,000  Level Cleveland Center
Thu 11:01:25 AM 41.9000 -83.4950 235° Southwest 288 331 10,000  Level Cleveland Center
Thu 11:02:27 AM 41.8536 -83.5831 235° Southwest 283 326 10,000  Level Cleveland Center
Thu 11:03:29 AM 41.8086 -83.6681 235° Southwest 280 322 10,000  Level Cleveland Center
Thu 11:04:30 AM 41.7622 -83.7539 234° Southwest 283 326 10,000  Level Cleveland Center
Thu 11:05:33 AM 41.7161 -83.8417 235° Southwest 287 330 10,000  Level Cleveland Center
Thu 11:06:34 AM 41.6583 -83.9472 234° Southwest 292 336 10,000  Level Cleveland Center
Thu 11:07:36 AM 41.6114 -84.0356 235° Southwest 291 335 10,000  Level Cleveland Center
Thu 11:08:38 AM 41.5639 -84.1247 235° Southwest 296 341 10,000  Level Cleveland Center
Thu 11:09:40 AM 41.5158 -84.2128 234° Southwest 295 339 10,000  Level Cleveland Center
Thu 11:10:42 AM 41.4608 -84.3125 234° Southwest 294 338 10,000  Level Cleveland Center
Thu 11:11:44 AM 41.4125 -84.4022 234° Southwest 297 342 10,000  Level Cleveland Center
Thu 11:12:45 AM 41.3647 -84.4906 234° Southwest 296 341 10,000  Level Cleveland Center
Thu 11:13:47 AM 41.3153 -84.5794 233° Southwest 298 343 10,000  Level Cleveland Center
Thu 11:14:49 AM 41.2692 -84.6631 234° Southwest 285 328 10,000 -629 Level Cleveland Center
Thu 11:15:51 AM 41.2314 -84.7428 238° Southwest 260 299 8,700 -1,463 Descending Cleveland Center
Thu 11:16:52 AM 41.1992 -84.8181 240° Southwest 240 276 7,000 -1,561 Descending Cleveland Center
Thu 11:17:54 AM 41.1664 -84.8925 240° Southwest 235 270 5,500 -1,452 Descending Cleveland Center
Thu 11:18:56 AM 41.1267 -84.9828 240° Southwest 235 270 4,000 -919 Descending Cleveland Center
Thu 11:19:58 AM 41.0889 -85.0514 234° Southwest 235 270 3,600 -634 Descending Cleveland Center
Thu 11:20:59 AM 41.0514 -85.0964 222° Southwest 204 235 2,700 -878 Descending Cleveland Center
Thu 11:22:01 AM 41.0244 -85.1325 225° Southwest 170 196 1,800 -532 Descending Cleveland Center
Thu 11:23:03 AM 41.0017 -85.1606 223° Southwest 136 157 1,600 -194 Descending Cleveland Center

Login

Don't have an account? Register now (free) for customized features, flight alerts, and more!